createdAt,value
2022-11-29T00:00:12.107Z,7.10
2022-11-29T00:05:15.800Z,8.55
2022-11-29T00:10:21.107Z,9.20
2022-11-29T00:15:24.664Z,9.03
2022-11-29T00:20:28.252Z,8.60
2022-11-29T00:25:33.471Z,7.88
2022-11-29T00:30:37.098Z,9.37
2022-11-29T00:35:40.685Z,9.52
2022-11-29T00:40:51.750Z,7.50
2022-11-29T00:45:55.369Z,7.13
2022-11-29T00:50:59.246Z,12.05
2022-11-29T00:56:05.652Z,7.97
2022-11-29T01:01:09.344Z,9.48
2022-11-29T01:06:15.705Z,10.52
2022-11-29T01:11:22.655Z,11.05
2022-11-29T01:16:27.181Z,8.35
2022-11-29T01:21:31.068Z,10.68
2022-11-29T01:26:37.189Z,10.25
2022-11-29T01:31:40.976Z,9.60
2022-11-29T01:36:44.540Z,10.65
2022-11-29T01:41:49.716Z,6.78
2022-11-29T01:46:54.586Z,6.55
2022-11-29T01:52:01.622Z,8.00
2022-11-29T01:57:08.834Z,8.30
2022-11-29T02:02:14.677Z,10.07
2022-11-29T02:07:18.711Z,9.48
2022-11-29T02:12:33.835Z,5.78
2022-11-29T02:17:50.515Z,10.68
2022-11-29T02:23:02.646Z,8.27
2022-11-29T02:28:53.176Z,6.25
2022-11-29T02:34:17.057Z,6.80
2022-11-29T02:39:34.209Z,4.63
2022-11-29T02:44:56.583Z,7.50
2022-11-29T02:50:19.070Z,5.97
2022-11-29T02:55:29.500Z,8.85
2022-11-29T03:00:37.259Z,8.93
2022-11-29T03:05:51.430Z,7.68
2022-11-29T03:11:04.209Z,8.50
2022-11-29T03:16:18.057Z,8.10
2022-11-29T03:21:35.597Z,7.80
2022-11-29T03:26:45.229Z,6.15
2022-11-29T03:31:54.984Z,6.78
2022-11-29T03:37:07.041Z,7.50
2022-11-29T03:42:14.955Z,5.88
2022-11-29T03:47:24.485Z,7.93
2022-11-29T03:52:35.665Z,6.93
2022-11-29T03:57:50.466Z,8.27
2022-11-29T04:03:32.993Z,7.28
2022-11-29T04:09:22.289Z,5.82
2022-11-29T04:15:06.477Z,8.68
2022-11-29T04:20:51.686Z,8.02
2022-11-29T04:26:26.449Z,8.45
2022-11-29T04:36:57.998Z,10.88
2022-11-29T04:42:25.190Z,7.78
2022-11-29T04:47:44.954Z,7.80
2022-11-29T04:53:13.498Z,7.93
2022-11-29T04:58:26.243Z,7.05
2022-11-29T05:03:39.761Z,7.07
2022-11-29T05:08:56.969Z,11.93
2022-11-29T05:14:09.497Z,8.85
2022-11-29T05:19:41.979Z,6.82
2022-11-29T05:24:54.380Z,7.60
2022-11-29T05:30:06.113Z,6.55
2022-11-29T05:35:41.672Z,5.38
2022-11-29T05:40:54.177Z,6.63
2022-11-29T05:46:09.219Z,6.97
2022-11-29T05:51:21.957Z,5.63
2022-11-29T05:56:35.184Z,5.43
2022-11-29T06:01:49.416Z,7.78
2022-11-29T06:07:01.249Z,6.47
2022-11-29T06:12:07.756Z,6.70
2022-11-29T06:17:38.761Z,6.72
2022-11-29T06:23:00.757Z,6.93
2022-11-29T06:28:21.674Z,9.93
2022-11-29T06:33:34.244Z,7.40
2022-11-29T06:38:38.138Z,8.60
2022-11-29T06:43:42.212Z,7.30
2022-11-29T06:48:51.696Z,6.38
2022-11-29T06:54:05.098Z,10.30
2022-11-29T06:59:14.974Z,9.68
2022-11-29T07:04:35.817Z,8.63
2022-11-29T07:09:39.527Z,8.80
2022-11-29T07:14:43.965Z,8.52
2022-11-29T07:20:00.538Z,8.82
2022-11-29T07:25:18.107Z,9.55
2022-11-29T07:30:23.340Z,10.48
2022-11-29T07:35:34.324Z,6.88
2022-11-29T07:40:44.987Z,12.88
2022-11-29T07:45:48.669Z,8.48
2022-11-29T07:50:54.022Z,12.25
2022-11-29T07:55:58.985Z,9.23
2022-11-29T08:01:02.594Z,6.43
2022-11-29T08:06:08.039Z,6.30
2022-11-29T08:11:13.497Z,8.37
2022-11-29T08:16:20.799Z,12.10
2022-11-29T08:21:26.033Z,8.60
2022-11-29T08:26:31.646Z,5.85
2022-11-29T08:31:35.915Z,5.88
2022-11-29T08:36:41.138Z,5.75
2022-11-29T08:41:44.913Z,6.28
2022-11-29T08:46:48.496Z,7.07
2022-11-29T08:51:55.346Z,3.65
2022-11-29T08:57:37.898Z,5.03
2022-11-29T09:02:22.432Z,5.63
2022-11-29T09:07:27.648Z,4.40
2022-11-29T09:12:32.177Z,6.57
2022-11-29T09:17:35.892Z,4.82
2022-11-29T09:22:41.092Z,3.05
2022-11-29T09:27:44.609Z,4.28
2022-11-29T09:32:48.124Z,3.88
2022-11-29T09:37:53.306Z,5.05
2022-11-29T09:43:01.481Z,4.63
2022-11-29T09:48:29.933Z,3.70
2022-11-29T09:53:47.077Z,5.10
2022-11-29T09:58:56.173Z,2.42
2022-11-29T10:04:04.581Z,4.55
2022-11-29T10:09:17.860Z,2.50
2022-11-29T10:14:27.705Z,2.88
2022-11-29T10:19:35.971Z,2.67
2022-11-29T10:24:45.675Z,1.88
2022-11-29T10:29:49.541Z,2.38
2022-11-29T10:34:53.453Z,3.08
2022-11-29T10:40:02.290Z,3.25
2022-11-29T10:45:11.823Z,2.63
2022-11-29T10:50:19.785Z,2.22
2022-11-29T10:55:27.007Z,2.80
2022-11-29T11:00:31.350Z,1.27
2022-11-29T11:05:34.954Z,0.98
2022-11-29T11:10:40.199Z,3.33
2022-11-29T11:15:43.794Z,1.90
2022-11-29T11:20:54.634Z,2.08
2022-11-29T11:26:03.008Z,1.45
2022-11-29T11:31:08.256Z,1.25
2022-11-29T11:36:14.521Z,2.97
2022-11-29T11:41:23.193Z,2.17
2022-11-29T11:46:47.860Z,7.65
2022-11-29T11:51:51.983Z,1.15
2022-11-29T11:56:57.390Z,1.55
2022-11-29T12:02:00.982Z,2.20
2022-11-29T12:07:10.450Z,2.95
2022-11-29T12:12:20.353Z,2.08
2022-11-29T12:17:32.258Z,3.42
2022-11-29T12:22:47.923Z,1.13
2022-11-29T12:27:53.651Z,1.10
2022-11-29T12:33:16.933Z,2.80
2022-11-29T12:38:38.130Z,1.88
2022-11-29T12:43:54.112Z,3.35
2022-11-29T12:49:05.458Z,2.87
2022-11-29T12:54:34.799Z,1.88
2022-11-29T13:00:00.309Z,1.30
2022-11-29T13:05:12.223Z,2.35
2022-11-29T13:10:31.012Z,1.63
2022-11-29T13:15:45.385Z,2.45
2022-11-29T13:20:58.790Z,0.82
2022-11-29T13:26:06.486Z,2.10
2022-11-29T13:31:18.040Z,2.28
2022-11-29T13:36:26.474Z,1.98
2022-11-29T13:41:34.903Z,1.80
2022-11-29T13:46:47.852Z,1.90
2022-11-29T13:52:05.654Z,2.70
2022-11-29T13:57:10.706Z,1.95
2022-11-29T14:02:29.967Z,3.05
2022-11-29T14:07:33.611Z,2.65
2022-11-29T14:12:42.488Z,3.42
2022-11-29T14:17:56.550Z,2.00
2022-11-29T14:23:16.499Z,1.80
2022-11-29T14:28:31.527Z,2.17
2022-11-29T14:34:01.125Z,1.58
2022-11-29T14:39:24.830Z,2.25
2022-11-29T14:44:30.034Z,3.90
2022-11-29T14:49:41.182Z,1.85
2022-11-29T14:54:55.847Z,2.60
2022-11-29T15:00:02.208Z,1.85
2022-11-29T15:05:16.574Z,1.85
2022-11-29T15:10:24.870Z,2.72
2022-11-29T15:15:38.864Z,2.05
2022-11-29T15:20:57.301Z,3.22
2022-11-29T15:26:02.258Z,2.45
2022-11-29T15:31:08.222Z,2.17
2022-11-29T15:36:18.074Z,1.88
2022-11-29T15:41:23.711Z,3.00
2022-11-29T15:46:29.426Z,2.03
2022-11-29T15:51:38.591Z,4.43
2022-11-29T15:56:46.605Z,3.05
2022-11-29T16:01:55.259Z,3.33
2022-11-29T16:07:00.533Z,2.67
2022-11-29T16:12:04.750Z,1.60
2022-11-29T16:17:09.633Z,2.30
2022-11-29T16:22:23.151Z,1.17
2022-11-29T16:27:26.741Z,2.40
2022-11-29T16:32:32.853Z,2.05
2022-11-29T16:37:42.518Z,2.80
2022-11-29T16:43:06.712Z,3.53
2022-11-29T16:48:31.853Z,3.83
2022-11-29T16:53:38.772Z,2.20
2022-11-29T16:59:26.929Z,2.67
2022-11-29T17:04:09.404Z,1.45
2022-11-29T17:09:22.627Z,2.03
2022-11-29T17:14:26.371Z,2.00
2022-11-29T17:19:30.456Z,4.18
2022-11-29T17:24:35.672Z,4.68
2022-11-29T17:29:39.254Z,3.38
2022-11-29T17:34:42.881Z,2.75
2022-11-29T17:39:48.323Z,2.20
2022-11-29T17:44:52.015Z,1.13
2022-11-29T17:49:55.645Z,1.73
2022-11-29T17:55:00.906Z,1.42
2022-11-29T18:00:05.497Z,8.40
2022-11-29T18:05:09.850Z,1.20
2022-11-29T18:10:15.232Z,1.02
2022-11-29T18:15:19.123Z,1.80
2022-11-29T18:20:22.667Z,1.67
2022-11-29T18:25:38.793Z,1.75
2022-11-29T18:30:42.979Z,1.27
2022-11-29T18:35:46.747Z,2.67
2022-11-29T18:40:51.945Z,3.25
2022-11-29T18:45:55.513Z,2.57
2022-11-29T18:51:03.104Z,1.27
2022-11-29T18:56:09.802Z,2.60
2022-11-29T19:01:15.074Z,3.97
2022-11-29T19:06:21.174Z,4.53
2022-11-29T19:16:31.208Z,3.65
2022-11-29T19:21:34.915Z,2.33
2022-11-29T19:26:40.425Z,1.83
2022-11-29T19:31:44.912Z,3.17
2022-11-29T19:36:48.842Z,2.20
2022-11-29T19:41:54.083Z,1.48
2022-11-29T19:46:57.720Z,3.00
2022-11-29T19:57:08.196Z,3.90
2022-11-29T20:02:12.631Z,1.60
2022-11-29T20:07:16.367Z,0.95
2022-11-29T20:12:21.631Z,1.42
2022-11-29T20:17:25.316Z,1.80
2022-11-29T20:22:29.035Z,1.83
2022-11-29T20:27:34.447Z,4.18
2022-11-29T20:32:38.495Z,2.28
2022-11-29T20:38:02.725Z,1.80
2022-11-29T20:43:16.610Z,0.77
2022-11-29T20:48:22.766Z,1.15
2022-11-29T20:53:32.828Z,0.90
2022-11-29T20:58:38.307Z,0.73
2022-11-29T21:03:42.092Z,2.40
2022-11-29T21:08:45.697Z,1.00
2022-11-29T21:13:51.630Z,2.03
2022-11-29T21:24:05.723Z,1.08
2022-11-29T21:29:16.820Z,1.90
2022-11-29T21:34:21.378Z,0.50
2022-11-29T21:39:30.719Z,1.88
2022-11-29T21:44:36.070Z,1.27
2022-11-29T21:49:40.000Z,1.97
2022-11-29T21:54:43.849Z,2.58
2022-11-29T21:59:49.312Z,1.50
2022-11-29T22:04:52.985Z,2.00
2022-11-29T22:09:58.632Z,1.08
2022-11-29T22:15:04.037Z,1.15
2022-11-29T22:20:08.704Z,1.35
2022-11-29T22:25:12.467Z,1.73
2022-11-29T22:30:18.269Z,1.58
2022-11-29T22:35:22.082Z,2.35
2022-11-29T22:40:25.712Z,1.45
2022-11-29T22:45:30.921Z,1.83
2022-11-29T22:50:34.591Z,2.37
2022-11-29T22:55:38.270Z,1.92
2022-11-29T23:00:43.545Z,3.38
2022-11-29T23:05:47.218Z,1.43
2022-11-29T23:10:56.343Z,4.85
2022-11-29T23:16:01.968Z,2.85
2022-11-29T23:21:08.267Z,1.52
2022-11-29T23:26:18.812Z,2.28
2022-11-29T23:31:24.934Z,2.55
2022-11-29T23:36:28.672Z,2.40
2022-11-29T23:41:32.213Z,2.40
2022-11-29T23:46:37.518Z,2.58
2022-11-29T23:51:41.145Z,2.77
2022-11-29T23:56:44.764Z,3.97
